Time;durP1;ratioP1;P1;durP2;ratioP2;P2;SDS_P1;SDS_P2;PMS_P1;PMS_P2;Temp;Humidity;BMP_temperature;BMP_pressure;BME280_temperature;BME280_humidity;BME280_pressure;Samples;Min_cycle;Max_cycle;Signal;HPM_P1;HPM_P2
2022/06/06 00:01:58;;;;;;;39.22;23.65;;;15.70;99.90;;;;;;4903574;29;20071;-90
2022/06/06 00:04:26;;;;;;;45.97;25.70;;;15.60;99.90;;;;;;4901609;29;20498;-88
2022/06/06 00:06:53;;;;;;;47.70;27.70;;;15.60;99.90;;;;;;4901739;29;20074;-88
2022/06/06 00:09:18;;;;;;;45.92;26.88;;;15.60;99.90;;;;;;4901294;29;20356;-87
2022/06/06 00:11:44;;;;;;;42.38;25.58;;;15.60;99.90;;;;;;4901681;29;20060;-88
2022/06/06 00:14:11;;;;;;;44.13;25.17;;;15.60;99.90;;;;;;4916607;29;20056;-86
2022/06/06 00:16:37;;;;;;;39.28;24.48;;;15.60;99.90;;;;;;4916886;29;20052;-88
2022/06/06 00:19:03;;;;;;;40.30;25.10;;;15.50;99.90;;;;;;4900984;29;20111;-87
2022/06/06 00:21:30;;;;;;;34.95;23.25;;;15.40;99.90;;;;;;4901409;29;20103;-88
2022/06/06 00:23:59;;;;;;;35.95;22.77;;;15.40;99.90;;;;;;4884922;29;20501;-87
2022/06/06 00:26:25;;;;;;;30.58;21.77;;;15.30;99.90;;;;;;4900577;29;20560;-88
2022/06/06 00:28:51;;;;;;;26.88;19.65;;;15.30;99.90;;;;;;4900402;29;20127;-88
2022/06/06 00:36:44;;;;;;;30.13;19.90;;;15.20;99.90;;;;;;4915878;29;20139;-87
2022/06/06 00:39:11;;;;;;;32.70;20.13;;;15.20;99.90;;;;;;4899835;29;20191;-88
2022/06/06 00:41:42;;;;;;;30.80;20.55;;;15.20;99.90;;;;;;4899963;29;20055;-89
2022/06/06 00:44:12;;;;;;;24.35;17.35;;;15.10;99.90;;;;;;4900156;29;20048;-88
2022/06/06 00:46:48;;;;;;;25.35;17.92;;;15.20;99.90;;;;;;4900332;29;20488;-87
2022/06/06 00:49:24;;;;;;;24.23;17.45;;;15.10;99.90;;;;;;4899609;29;20052;-88
2022/06/06 00:51:49;;;;;;;25.67;17.48;;;15.10;99.90;;;;;;4900348;29;20059;-89
2022/06/06 00:54:15;;;;;;;25.83;17.27;;;15.10;99.90;;;;;;4899729;29;20389;-87
2022/06/06 00:56:47;;;;;;;27.20;18.73;;;15.10;99.90;;;;;;4915907;29;20143;-87
2022/06/06 00:59:16;;;;;;;25.83;17.77;;;15.10;99.90;;;;;;4915382;29;20064;-89
2022/06/06 01:01:41;;;;;;;31.15;19.63;;;15.10;99.90;;;;;;4884446;29;20135;-88
2022/06/06 01:04:08;;;;;;;28.88;19.13;;;15.10;99.90;;;;;;4898824;29;20489;-88
2022/06/06 01:06:35;;;;;;;29.48;19.25;;;15.10;99.90;;;;;;4900173;29;20088;-88
2022/06/06 01:09:01;;;;;;;27.27;18.92;;;15.10;99.90;;;;;;4899816;29;20103;-89
2022/06/06 01:11:27;;;;;;;29.52;19.17;;;15.10;99.90;;;;;;4899233;29;20337;-89
2022/06/06 01:13:53;;;;;;;28.63;18.40;;;15.10;99.90;;;;;;4915187;29;20060;-88
2022/06/06 01:16:39;;;;;;;27.58;17.67;;;15.10;99.90;;;;;;4899239;29;20087;-88
2022/06/06 01:19:08;;;;;;;27.08;17.48;;;15.10;99.90;;;;;;4899726;29;20552;-89
2022/06/06 01:21:34;;;;;;;22.42;16.02;;;15.00;99.90;;;;;;4914638;29;20048;-88
2022/06/06 01:24:34;;;;;;;20.90;15.00;;;15.00;99.90;;;;;;4915036;29;20040;-87
2022/06/06 01:27:37;;;;;;;20.23;14.18;;;15.00;99.90;;;;;;4915263;29;20052;-89
2022/06/06 01:30:11;;;;;;;18.63;13.85;;;15.00;99.90;;;;;;4914752;29;20055;-89
2022/06/06 01:32:40;;;;;;;19.48;13.43;;;15.00;99.90;;;;;;4914697;29;20407;-88
2022/06/06 01:35:06;;;;;;;17.83;11.82;;;15.00;99.90;;;;;;4900521;29;20477;-89
2022/06/06 01:37:39;;;;;;;13.38;11.23;;;14.90;99.90;;;;;;4927221;29;20063;-90
2022/06/06 01:40:10;;;;;;;13.98;11.02;;;14.90;99.90;;;;;;4925945;29;20058;-88
2022/06/06 01:42:42;;;;;;;13.40;10.52;;;14.90;99.90;;;;;;4901874;29;20079;-88
2022/06/06 01:45:11;;;;;;;12.15;10.25;;;14.80;99.90;;;;;;4902400;29;20572;-87
2022/06/06 01:48:00;;;;;;;11.55;9.70;;;14.90;99.90;;;;;;4934829;29;20138;-88
2022/06/06 01:50:26;;;;;;;13.35;10.77;;;14.90;99.90;;;;;;4902104;29;20044;-88
2022/06/06 01:52:58;;;;;;;14.05;11.00;;;14.90;99.90;;;;;;4917732;29;20044;-88
2022/06/06 01:55:25;;;;;;;13.27;11.40;;;14.80;99.90;;;;;;4901833;29;20062;-89
2022/06/06 01:57:52;;;;;;;14.93;11.98;;;14.80;99.90;;;;;;4902196;29;20388;-88
2022/06/06 02:00:17;;;;;;;13.82;11.77;;;14.70;99.90;;;;;;4917310;29;20106;-90
2022/06/06 02:02:43;;;;;;;14.68;11.82;;;14.70;99.90;;;;;;4905375;29;20043;-89
2022/06/06 02:05:11;;;;;;;15.77;11.75;;;14.70;99.90;;;;;;4922649;29;20048;-89
2022/06/06 02:07:38;;;;;;;16.83;13.15;;;14.70;99.90;;;;;;4923208;29;20107;-90
2022/06/06 02:10:05;;;;;;;17.48;14.45;;;14.70;99.90;;;;;;4902165;29;20059;-88
2022/06/06 02:12:30;;;;;;;20.15;14.57;;;14.70;99.90;;;;;;4903024;29;20066;-90
2022/06/06 02:14:56;;;;;;;19.35;15.07;;;14.70;99.90;;;;;;4935456;29;20122;-87
2022/06/06 02:17:22;;;;;;;16.42;14.50;;;14.60;99.90;;;;;;4922728;29;20071;-88
2022/06/06 02:19:48;;;;;;;21.48;15.00;;;14.60;99.90;;;;;;4911488;29;20058;-89
2022/06/06 02:22:14;;;;;;;20.63;16.02;;;14.50;99.90;;;;;;4934646;29;20086;-89
2022/06/06 02:24:39;;;;;;;21.40;15.82;;;14.60;99.90;;;;;;4885946;29;20063;-91
2022/06/06 02:27:06;;;;;;;25.65;17.05;;;14.50;99.90;;;;;;4902144;29;20052;-92
2022/06/06 02:29:32;;;;;;;22.40;18.00;;;14.50;99.90;;;;;;4918287;29;20056;-89
2022/06/06 02:31:57;;;;;;;24.50;18.15;;;14.60;99.90;;;;;;4922800;29;20046;-90
2022/06/06 02:34:23;;;;;;;26.42;19.30;;;14.50;99.90;;;;;;4926895;29;20048;-89
2022/06/06 02:36:49;;;;;;;23.45;17.58;;;14.50;99.90;;;;;;4939085;29;20083;-90
2022/06/06 02:39:14;;;;;;;25.17;17.92;;;14.40;99.90;;;;;;4921993;29;20048;-90
2022/06/06 02:41:41;;;;;;;25.88;18.80;;;14.50;99.90;;;;;;4918982;29;20052;-90
2022/06/06 02:44:07;;;;;;;24.40;17.55;;;14.50;99.90;;;;;;4928945;29;20051;-90
2022/06/06 02:46:33;;;;;;;23.98;17.83;;;14.50;99.90;;;;;;4921309;29;20499;-93
2022/06/06 02:48:59;;;;;;;22.98;16.67;;;14.50;99.90;;;;;;4905028;29;20051;-92
2022/06/06 02:51:24;;;;;;;21.88;16.40;;;14.50;99.90;;;;;;4936022;29;20054;-89
2022/06/06 02:53:50;;;;;;;25.17;17.63;;;14.40;99.90;;;;;;4903724;29;20040;-93
2022/06/06 02:56:16;;;;;;;23.20;16.65;;;14.40;99.90;;;;;;4919340;29;20450;-91
2022/06/06 02:58:41;;;;;;;24.98;16.67;;;14.40;99.90;;;;;;4902999;29;20055;-91
2022/06/06 03:01:09;;;;;;;25.45;17.10;;;14.40;99.90;;;;;;4918555;29;20039;-90
2022/06/06 03:03:35;;;;;;;23.25;16.60;;;14.40;99.90;;;;;;4902118;29;20516;-90
2022/06/06 03:06:31;;;;;;;25.10;16.90;;;14.50;99.90;;;;;;4902416;29;20059;-91
2022/06/06 03:09:08;;;;;;;28.40;17.98;;;14.40;99.90;;;;;;4902217;29;20052;-91
2022/06/06 03:11:57;;;;;;;28.08;18.38;;;14.40;99.90;;;;;;4917516;29;20134;-89
2022/06/06 03:15:07;;;;;;;26.35;16.35;;;14.40;99.90;;;;;;4917266;29;20139;-89
2022/06/06 03:21:13;;;;;;;28.60;17.05;;;14.50;99.90;;;;;;4917261;29;20059;-89
2022/06/06 03:24:05;;;;;;;23.52;14.93;;;14.50;99.90;;;;;;4901093;29;20048;-92
2022/06/06 03:26:55;;;;;;;20.13;12.40;;;14.50;99.90;;;;;;4901391;29;20079;-91
2022/06/06 03:29:54;;;;;;;12.20;9.25;;;14.50;99.90;;;;;;4920810;29;20051;-89
2022/06/06 03:32:38;;;;;;;13.02;9.65;;;14.50;99.90;;;;;;4920706;29;20447;-89
2022/06/06 03:35:04;;;;;;;13.70;10.27;;;14.40;99.90;;;;;;4920634;29;20054;-90
2022/06/06 03:37:32;;;;;;;16.50;11.38;;;14.50;99.90;;;;;;4919590;29;20060;-91
2022/06/06 03:40:29;;;;;;;19.70;13.73;;;14.50;99.90;;;;;;4905131;29;20574;-90
2022/06/06 03:43:16;;;;;;;23.25;15.85;;;14.50;99.90;;;;;;4889137;29;20122;-90
2022/06/06 03:45:46;;;;;;;27.23;16.38;;;14.40;99.90;;;;;;4920240;29;20408;-90
2022/06/06 03:48:17;;;;;;;31.70;17.40;;;14.40;99.90;;;;;;4906780;29;20060;-90
2022/06/06 03:50:59;;;;;;;31.50;18.08;;;14.40;99.90;;;;;;4930959;29;20055;-90
2022/06/06 03:53:49;;;;;;;31.77;18.27;;;14.40;99.90;;;;;;4905850;29;20118;-90
2022/06/06 03:56:18;;;;;;;37.45;19.83;;;14.30;99.90;;;;;;4921271;29;20134;-91
2022/06/06 03:58:44;;;;;;;37.20;18.45;;;14.20;99.90;;;;;;4920588;29;20043;-91
2022/06/06 04:01:10;;;;;;;34.70;18.73;;;14.20;99.90;;;;;;4921669;29;20516;-90
2022/06/06 04:03:36;;;;;;;40.70;18.33;;;14.20;99.90;;;;;;4904945;29;20146;-92
2022/06/06 04:06:02;;;;;;;35.72;17.60;;;14.20;99.90;;;;;;4904887;29;20141;-90
2022/06/06 04:08:27;;;;;;;38.22;19.48;;;14.20;99.90;;;;;;4905639;29;20099;-91
2022/06/06 04:11:32;;;;;;;35.88;17.45;;;14.20;99.90;;;;;;4937416;29;20055;-92
2022/06/06 04:14:15;;;;;;;28.67;15.77;;;14.20;99.90;;;;;;4908037;29;20060;-91
2022/06/06 04:16:50;;;;;;;34.72;19.27;;;14.20;99.90;;;;;;4920811;29;20057;-92
2022/06/06 04:19:45;;;;;;;38.63;20.98;;;14.10;99.90;;;;;;4921286;29;20048;-91
2022/06/06 04:22:41;;;;;;;41.88;20.35;;;14.10;99.90;;;;;;4897246;29;20147;-94
2022/06/06 04:25:30;;;;;;;37.55;17.73;;;14.00;99.90;;;;;;4937605;29;20059;-93
2022/06/06 04:28:13;;;;;;;37.50;17.70;;;14.10;99.90;;;;;;4908659;29;20055;-92
2022/06/06 04:30:52;;;;;;;27.60;14.30;;;14.10;99.90;;;;;;4909474;29;20063;-89
2022/06/06 04:33:25;;;;;;;27.80;14.57;;;14.00;99.90;;;;;;4910872;29;20067;-91
2022/06/06 04:36:02;;;;;;;18.55;11.57;;;14.10;99.90;;;;;;4909156;29;20111;-91
2022/06/06 04:38:38;;;;;;;18.20;11.65;;;14.00;99.90;;;;;;4904305;29;20059;-92
2022/06/06 04:41:28;;;;;;;17.17;10.80;;;14.00;99.90;;;;;;4904537;29;20118;-92
2022/06/06 04:44:09;;;;;;;18.63;10.90;;;13.90;99.90;;;;;;4904880;29;20086;-92
2022/06/06 04:46:58;;;;;;;21.52;11.77;;;13.90;99.90;;;;;;4925116;29;20054;-93
2022/06/06 04:49:25;;;;;;;22.55;11.98;;;13.90;99.90;;;;;;4909511;29;20061;-90
2022/06/06 04:51:51;;;;;;;22.80;12.88;;;13.90;99.90;;;;;;4911187;29;20119;-92
2022/06/06 04:54:23;;;;;;;21.35;12.35;;;13.90;99.90;;;;;;4908415;29;20087;-92
2022/06/06 04:56:50;;;;;;;25.52;16.58;;;13.90;99.90;;;;;;4903756;29;20484;-93
2022/06/06 04:59:15;;;;;;;30.73;18.25;;;13.90;99.90;;;;;;4888473;29;20119;-91
2022/06/06 05:01:41;;;;;;;33.78;18.92;;;13.80;99.90;;;;;;4904699;29;20147;-94
2022/06/06 05:04:07;;;;;;;40.40;21.35;;;13.80;99.90;;;;;;4903859;29;20056;-93
2022/06/06 05:07:16;;;;;;;34.38;22.35;;;13.80;99.90;;;;;;4887616;29;20056;-92
2022/06/06 05:10:06;;;;;;;41.38;23.38;;;13.80;99.90;;;;;;4893440;29;20067;-89
2022/06/06 05:12:58;;;;;;;47.58;25.75;;;13.80;99.90;;;;;;4919846;29;20070;-91
2022/06/06 05:15:45;;;;;;;45.38;26.48;;;13.80;99.90;;;;;;4902410;29;20499;-93
2022/06/06 05:18:28;;;;;;;49.70;27.23;;;13.80;99.90;;;;;;4918701;29;20045;-94
2022/06/06 05:21:41;;;;;;;47.55;26.83;;;13.70;99.90;;;;;;4903370;29;20518;-93
2022/06/06 05:24:24;;;;;;;52.42;25.73;;;13.80;99.90;;;;;;4889077;29;20059;-91
2022/06/06 05:27:11;;;;;;;54.10;26.70;;;13.80;99.90;;;;;;4902713;29;20047;-93
2022/06/06 05:30:04;;;;;;;54.20;25.75;;;13.80;99.90;;;;;;4920197;29;20058;-90
2022/06/06 05:32:51;;;;;;;47.15;24.17;;;13.80;99.90;;;;;;4904135;29;20050;-91
2022/06/06 05:35:23;;;;;;;44.67;21.77;;;13.80;99.90;;;;;;4904200;29;20092;-91
2022/06/06 05:37:56;;;;;;;52.55;23.80;;;13.90;99.90;;;;;;4903780;29;20139;-93
2022/06/06 05:40:41;;;;;;;45.20;21.42;;;13.70;99.90;;;;;;4919578;29;20059;-93
2022/06/06 05:43:07;;;;;;;41.92;21.58;;;13.80;99.90;;;;;;4902714;29;20107;-91
2022/06/06 05:45:42;;;;;;;44.00;22.15;;;13.80;99.90;;;;;;4918392;29;20055;-88
2022/06/06 05:48:26;;;;;;;42.33;20.90;;;13.70;99.90;;;;;;4902515;29;20075;-90
2022/06/06 05:50:51;;;;;;;38.38;20.20;;;13.80;99.90;;;;;;4917553;29;20515;-91
2022/06/06 05:53:35;;;;;;;38.58;18.80;;;13.70;99.90;;;;;;4902437;29;20051;-93
2022/06/06 05:56:30;;;;;;;38.92;19.73;;;13.80;99.90;;;;;;4917567;29;20254;-91
2022/06/06 05:59:14;;;;;;;;;;;13.70;99.90;;;;;;4891658;29;20055;-93
2022/06/06 06:02:18;;;;;;;34.93;18.97;;;13.80;99.90;;;;;;4939394;29;19921;-90
2022/06/06 06:05:08;;;;;;;33.97;18.50;;;13.70;99.90;;;;;;4912836;29;20375;-91
2022/06/06 06:07:56;;;;;;;36.67;18.42;;;13.70;99.90;;;;;;4934825;29;20492;-92
2022/06/06 06:10:37;;;;;;;25.95;15.38;;;13.70;99.90;;;;;;4919522;29;20111;-89
2022/06/06 06:13:11;;;;;;;27.33;16.55;;;13.70;99.90;;;;;;4913220;29;20043;-91
2022/06/06 06:15:41;;;;;;;27.88;16.00;;;13.70;99.90;;;;;;4918849;29;20051;-92
2022/06/06 06:18:16;;;;;;;28.83;15.63;;;13.80;99.90;;;;;;4932025;29;20078;-93
2022/06/06 06:20:44;;;;;;;;;;;13.80;99.90;;;;;;4922323;29;20083;-93
2022/06/06 06:23:13;;;;;;;22.33;13.85;;;13.80;99.90;;;;;;4904130;29;20291;-93
2022/06/06 06:25:40;;;;;;;22.38;13.77;;;13.90;99.90;;;;;;4920446;29;20075;-93
2022/06/06 06:28:07;;;;;;;21.35;13.32;;;13.90;99.90;;;;;;4904626;29;20079;-93
2022/06/06 06:30:47;;;;;;;24.27;13.65;;;14.00;99.90;;;;;;4904993;29;20054;-91
2022/06/06 06:33:22;;;;;;;18.05;12.18;;;13.80;99.90;;;;;;4904358;29;20075;-90
2022/06/06 06:36:01;;;;;;;19.65;12.95;;;13.90;99.90;;;;;;4901537;29;20071;-91
2022/06/06 06:38:45;;;;;;;25.02;12.45;;;13.80;99.90;;;;;;4899954;29;20070;-92
2022/06/06 06:41:11;;;;;;;;;;;13.70;99.90;;;;;;4916571;29;20063;-93
2022/06/06 06:43:59;;;;;;;17.77;11.80;;;13.80;99.90;;;;;;4918345;29;20271;-93
2022/06/06 06:46:27;;;;;;;21.55;11.18;;;13.70;99.90;;;;;;4905263;29;20059;-92
2022/06/06 06:48:59;;;;;;;20.92;12.57;;;13.70;99.90;;;;;;4899639;29;20370;-92
2022/06/06 06:51:43;;;;;;;19.98;12.48;;;13.70;99.90;;;;;;4885175;29;20063;-94
2022/06/06 06:54:17;;;;;;;23.27;13.70;;;13.70;99.90;;;;;;4915039;29;20143;-91
2022/06/06 06:57:16;;;;;;;30.75;14.88;;;13.80;99.90;;;;;;4899875;29;20067;-91
2022/06/06 06:59:46;;;;;;;29.98;16.35;;;13.90;99.90;;;;;;4915428;29;20060;-92
2022/06/06 07:10:58;;;;;;;18.80;11.15;;;15.90;99.90;;;;;;4919309;29;20083;-93
2022/06/06 07:13:56;;;;;;;16.08;10.20;;;15.50;99.90;;;;;;4889105;29;20135;-93
2022/06/06 07:16:35;;;;;;;16.85;10.32;;;15.30;99.90;;;;;;4898156;29;20158;-93
2022/06/06 07:19:11;;;;;;;16.48;10.57;;;15.40;99.90;;;;;;4919219;29;20147;-92
2022/06/06 07:21:37;;;;;;;14.77;8.80;;;15.20;99.90;;;;;;4904797;29;20048;-95
2022/06/06 07:24:06;;;;;;;11.55;7.55;;;15.20;99.90;;;;;;4890461;29;20056;-94
2022/06/06 07:26:37;;;;;;;12.82;8.38;;;15.20;99.90;;;;;;4904815;29;20131;-91
2022/06/06 07:29:05;;;;;;;11.18;8.15;;;15.50;99.90;;;;;;4902217;29;20040;-84
2022/06/06 07:31:42;;;;;;;12.05;8.38;;;15.20;99.90;;;;;;4918858;29;20096;-92
2022/06/06 07:34:39;;;;;;;12.32;7.40;;;15.30;99.90;;;;;;4923796;29;20480;-91
2022/06/06 07:37:21;;;;;;;12.02;7.10;;;15.70;99.90;;;;;;4934331;29;20060;-90
2022/06/06 07:39:58;;;;;;;10.27;6.35;;;16.00;99.90;;;;;;4925490;29;20087;-93
2022/06/06 07:42:50;;;;;;;8.38;6.07;;;15.90;99.90;;;;;;4925222;29;20453;-92
2022/06/06 07:45:22;;;;;;;7.07;5.85;;;16.30;99.90;;;;;;4920201;29;20106;-91
2022/06/06 07:47:56;;;;;;;9.52;5.45;;;16.30;99.90;;;;;;4911339;29;20054;-93
2022/06/06 07:50:25;;;;;;;;;;;16.40;99.90;;;;;;4926244;29;20500;-94
2022/06/06 07:53:11;;;;;;;6.70;4.95;;;17.30;99.90;;;;;;4912498;29;19941;-92
2022/06/06 07:55:50;;;;;;;6.78;5.07;;;15.80;99.90;;;;;;4919842;29;20056;-91
2022/06/06 07:58:46;;;;;;;7.88;5.57;;;16.30;99.90;;;;;;4932944;29;20119;-95
2022/06/06 08:01:26;;;;;;;9.18;6.00;;;16.30;99.90;;;;;;4892461;29;20047;-93
2022/06/06 08:04:02;;;;;;;8.95;5.80;;;15.90;99.90;;;;;;4912559;29;20527;-91
2022/06/06 08:06:41;;;;;;;9.23;6.47;;;16.10;99.90;;;;;;4903616;29;20060;-91
2022/06/06 08:09:25;;;;;;;9.95;6.25;;;16.50;99.90;;;;;;4896950;29;20058;-90
2022/06/06 08:12:33;;;;;;;8.68;6.35;;;16.10;99.90;;;;;;4930560;29;20108;-89
2022/06/06 08:14:58;;;;;;;9.43;7.00;;;16.60;99.90;;;;;;4910500;29;20094;-92
2022/06/06 08:17:42;;;;;;;8.30;6.43;;;17.30;99.90;;;;;;4911811;29;20064;-92
2022/06/06 08:20:11;;;;;;;6.97;5.80;;;18.00;99.90;;;;;;4880981;29;20083;-93
2022/06/06 08:22:42;;;;;;;9.23;6.72;;;16.60;99.90;;;;;;4926584;29;20059;-93
2022/06/06 08:25:09;;;;;;;9.48;6.32;;;17.40;99.90;;;;;;4885068;29;20048;-90
2022/06/06 08:27:35;;;;;;;10.85;7.40;;;17.20;99.90;;;;;;4894231;29;20044;-91
2022/06/06 08:30:01;;;;;;;10.25;7.30;;;16.30;99.90;;;;;;4873796;29;20461;-90
2022/06/06 08:32:29;;;;;;;10.40;7.50;;;16.20;99.90;;;;;;4895470;29;20123;-92
2022/06/06 08:34:58;;;;;;;13.23;7.97;;;16.40;99.90;;;;;;4913558;29;20052;-93
2022/06/06 08:37:43;;;;;;;13.35;8.45;;;17.00;99.90;;;;;;4902366;29;20079;-87
2022/06/06 08:40:27;;;;;;;12.43;7.90;;;18.00;99.90;;;;;;4919264;29;20477;-89
2022/06/06 08:43:27;;;;;;;12.13;7.60;;;18.70;99.90;;;;;;4919532;29;20484;-92
2022/06/06 08:46:19;;;;;;;9.02;6.82;;;19.30;99.90;;;;;;4903908;29;20531;-91
2022/06/06 08:52:16;;;;;;;8.70;5.47;;;19.50;99.90;;;;;;4912668;29;20055;-91
2022/06/06 08:55:17;;;;;;;8.57;4.75;;;20.60;99.90;;;;;;4926394;29;20055;-91
2022/06/06 08:58:12;;;;;;;7.20;4.28;;;20.30;99.90;;;;;;4893887;29;20059;-90
2022/06/06 09:01:11;;;;;;;5.80;4.38;;;19.90;99.90;;;;;;4909380;29;20130;-90
2022/06/06 09:04:04;;;;;;;8.32;4.57;;;18.80;99.90;;;;;;4927812;29;20146;-93
2022/06/06 09:07:04;;;;;;;6.57;4.65;;;20.20;99.90;;;;;;4935886;29;20407;-94
2022/06/06 09:09:54;;;;;;;6.03;4.10;;;19.80;99.90;;;;;;4919672;29;20110;-95
2022/06/06 09:12:47;;;;;;;6.03;3.75;;;19.50;99.90;;;;;;4918935;29;20169;-92
2022/06/06 09:15:33;;;;;;;6.37;3.87;;;19.50;99.90;;;;;;4919004;29;20055;-92
2022/06/06 09:18:23;;;;;;;5.40;2.80;;;20.30;99.90;;;;;;4903560;29;20295;-91
2022/06/06 09:20:50;;;;;;;5.97;2.70;;;20.20;99.90;;;;;;4915707;29;20059;-94
2022/06/06 09:23:47;;;;;;;4.18;2.35;;;19.50;99.90;;;;;;4912955;29;20096;-87
2022/06/06 09:26:34;;;;;;;4.28;2.45;;;19.40;99.90;;;;;;4918303;29;20058;-91
2022/06/06 09:29:26;;;;;;;6.15;3.00;;;18.90;99.90;;;;;;4934467;29;20051;-90
2022/06/06 09:32:12;;;;;;;4.45;2.60;;;18.40;99.90;;;;;;4902413;29;20066;-89
2022/06/06 09:34:53;;;;;;;5.63;2.65;;;18.20;99.90;;;;;;4919644;29;20465;-89
2022/06/06 09:37:43;;;;;;;7.32;2.47;;;19.30;99.90;;;;;;4939340;29;20068;-88
2022/06/06 09:40:21;;;;;;;5.63;2.00;;;20.30;99.90;;;;;;4941747;29;20055;-89
2022/06/06 09:43:09;;;;;;;3.63;2.00;;;20.50;99.90;;;;;;4939202;29;20052;-88
2022/06/06 09:46:03;;;;;;;5.78;2.20;;;20.40;99.90;;;;;;4926840;29;20043;-89
2022/06/06 09:48:52;;;;;;;5.20;2.00;;;19.90;99.90;;;;;;4920546;29;20484;-88
2022/06/06 09:51:39;;;;;;;6.63;1.95;;;19.50;99.90;;;;;;4905786;29;20048;-89
2022/06/06 10:00:52;;;;;;;4.65;2.88;;;15.80;99.90;;;;;;4934000;29;20119;-90
2022/06/06 10:03:35;;;;;;;5.27;3.10;;;17.20;99.90;;;;;;4933648;29;20134;-91
2022/06/06 10:06:09;;;;;;;4.47;3.33;;;17.20;99.90;;;;;;4936039;29;20138;-89
2022/06/06 10:08:50;;;;;;;4.32;3.25;;;17.70;99.90;;;;;;4902853;29;20087;-90
2022/06/06 10:11:37;;;;;;;5.40;3.10;;;18.20;99.90;;;;;;4918264;29;20055;-90
2022/06/06 10:14:24;;;;;;;7.05;2.45;;;18.40;99.90;;;;;;4918232;29;20115;-90
2022/06/06 10:17:14;;;;;;;5.43;2.20;;;18.30;99.90;;;;;;4934068;29;20130;-90
2022/06/06 10:20:16;;;;;;;3.92;2.25;;;18.00;99.90;;;;;;4924252;29;20055;-90
2022/06/06 10:22:51;;;;;;;3.13;2.20;;;16.70;99.90;;;;;;4921500;29;20087;-90
2022/06/06 10:25:43;;;;;;;2.78;2.30;;;18.90;99.90;;;;;;4919871;29;20074;-90
2022/06/06 10:28:32;;;;;;;3.90;2.22;;;19.30;99.90;;;;;;4910564;29;20111;-92
2022/06/06 10:31:32;;;;;;;4.07;2.00;;;19.50;99.90;;;;;;4921062;29;20080;-90
2022/06/06 10:34:09;;;;;;;3.85;2.40;;;19.80;99.90;;;;;;4917835;29;20051;-91
2022/06/06 10:36:50;;;;;;;5.43;2.38;;;18.60;99.90;;;;;;4900600;29;20547;-89
2022/06/06 10:40:04;;;;;;;3.83;1.77;;;18.50;99.90;;;;;;4902179;29;20504;-89
2022/06/06 10:43:06;;;;;;;6.22;1.80;;;17.50;99.90;;;;;;4927944;29;20066;-89
2022/06/06 10:45:36;;;;;;;2.22;1.55;;;17.30;99.90;;;;;;4933896;29;20062;-89
2022/06/06 10:48:12;;;;;;;3.67;1.65;;;17.70;99.90;;;;;;4902350;29;20048;-89
2022/06/06 10:53:54;;;;;;;3.58;1.60;;;18.70;99.90;;;;;;4933013;29;20067;-90
2022/06/06 10:56:52;;;;;;;3.05;1.80;;;19.50;99.90;;;;;;4933164;29;20107;-90
2022/06/06 10:59:32;;;;;;;6.18;2.60;;;19.90;99.90;;;;;;4914648;29;20090;-90
2022/06/06 11:02:26;;;;;;;3.38;2.10;;;20.40;99.90;;;;;;4898110;29;20139;-90
2022/06/06 11:05:23;;;;;;;5.82;2.10;;;19.40;99.90;;;;;;4945010;29;20055;-90
2022/06/06 11:08:37;;;;;;;5.05;1.80;;;19.50;99.90;;;;;;4898501;29;20052;-88
2022/06/06 11:11:21;;;;;;;4.25;1.70;;;19.80;99.90;;;;;;4884918;29;20067;-90
2022/06/06 11:14:01;;;;;;;3.05;1.60;;;19.50;99.90;;;;;;4897562;29;20066;-88
2022/06/06 11:16:54;;;;;;;2.80;1.50;;;20.40;99.90;;;;;;4916005;29;20555;-89
2022/06/06 11:19:32;;;;;;;3.67;1.80;;;19.10;99.90;;;;;;4931209;29;20501;-90
2022/06/06 11:22:00;;;;;;;4.28;1.92;;;19.60;99.90;;;;;;4932223;29;20134;-87
2022/06/06 11:24:33;;;;;;;3.47;1.63;;;19.50;99.90;;;;;;4915106;29;20066;-87
2022/06/06 11:27:17;;;;;;;5.07;1.70;;;19.60;99.90;;;;;;4909257;29;20147;-89
2022/06/06 11:29:50;;;;;;;2.97;1.58;;;19.20;99.90;;;;;;4900339;29;20082;-90
2022/06/06 11:32:45;;;;;;;7.53;1.73;;;19.10;99.90;;;;;;4908768;29;20056;-88
2022/06/06 11:35:28;;;;;;;3.08;1.67;;;19.50;99.90;;;;;;4902666;29;20051;-90
2022/06/06 11:38:11;;;;;;;3.55;1.60;;;19.30;99.90;;;;;;4877403;29;20044;-93
2022/06/06 11:41:15;;;;;;;3.47;1.50;;;19.30;99.90;;;;;;4917242;29;20083;-89
2022/06/06 11:44:16;;;;;;;4.78;1.65;;;19.70;99.90;;;;;;4916956;29;20051;-88
2022/06/06 11:46:59;;;;;;;2.97;1.80;;;19.70;99.90;;;;;;4910969;29;20055;-91
2022/06/06 11:49:46;;;;;;;2.60;1.55;;;20.40;99.90;;;;;;4911721;29;20493;-91
2022/06/06 11:52:36;;;;;;;3.72;2.10;;;19.80;99.90;;;;;;4912618;29;20095;-89
2022/06/06 11:55:15;;;;;;;1.50;1.40;;;19.80;99.90;;;;;;4928618;29;20051;-91
2022/06/06 11:58:12;;;;;;;2.17;1.42;;;20.20;99.90;;;;;;4920453;29;20063;-93
2022/06/06 12:01:01;;;;;;;1.50;1.30;;;20.00;99.90;;;;;;4915556;29;20106;-92
2022/06/06 12:03:54;;;;;;;3.05;2.08;;;20.10;99.90;;;;;;4907146;29;20059;-91
2022/06/06 12:06:47;;;;;;;4.00;1.60;;;20.30;99.90;;;;;;4950329;29;20127;-88
2022/06/06 12:09:22;;;;;;;4.00;2.25;;;20.50;99.90;;;;;;4920929;29;20047;-91
2022/06/06 12:12:18;;;;;;;4.72;1.65;;;20.30;99.90;;;;;;4911198;29;20056;-92
2022/06/06 12:14:56;;;;;;;2.30;1.50;;;20.10;99.90;;;;;;4916070;29;20534;-91
2022/06/06 12:17:33;;;;;;;3.35;1.70;;;20.20;99.90;;;;;;4953014;29;20086;-89
2022/06/06 12:20:02;;;;;;;3.83;1.10;;;19.90;99.90;;;;;;4930825;29;20074;-90
2022/06/06 12:22:49;;;;;;;3.13;1.40;;;19.70;99.90;;;;;;4923178;29;20181;-91
2022/06/06 12:25:49;;;;;;;4.47;1.38;;;20.30;99.90;;;;;;4909573;29;20097;-93
2022/06/06 12:28:49;;;;;;;2.40;1.38;;;19.40;99.90;;;;;;4939694;29;20055;-90
2022/06/06 12:31:41;;;;;;;4.28;3.03;;;19.30;99.90;;;;;;4928006;29;20055;-89
2022/06/06 12:34:25;;;;;;;4.00;1.50;;;19.50;99.90;;;;;;4922703;29;20047;-89
2022/06/06 12:37:02;;;;;;;2.60;1.42;;;19.40;99.90;;;;;;4922877;29;20110;-90
2022/06/06 12:39:32;;;;;;;4.40;1.27;;;19.80;99.90;;;;;;4923621;29;20728;-90
2022/06/06 12:42:13;;;;;;;2.30;0.85;;;19.70;99.90;;;;;;4939658;29;20138;-91
2022/06/06 12:44:44;;;;;;;3.25;0.90;;;19.70;99.90;;;;;;4897820;29;20083;-89
2022/06/06 12:47:43;;;;;;;3.00;1.15;;;20.00;99.90;;;;;;4914577;29;20043;-92
2022/06/06 12:50:15;;;;;;;0.88;0.68;;;19.90;99.90;;;;;;4898333;29;20066;-91
2022/06/06 12:53:04;;;;;;;1.42;1.13;;;20.00;99.90;;;;;;4913351;29;20143;-91
2022/06/06 12:56:25;;;;;;;1.88;0.82;;;19.50;99.90;;;;;;4904625;29;20063;-88
2022/06/06 12:58:35;;;;;;;2.58;0.90;;;19.60;99.90;;;;;;4916779;29;20046;-91
2022/06/06 13:04:01;;;;;;;3.35;1.30;;;19.10;99.90;;;;;;4914855;29;20047;-91
2022/06/06 13:07:09;;;;;;;1.52;1.10;;;19.10;99.90;;;;;;4920418;29;20174;-93
2022/06/06 13:10:08;;;;;;;1.83;1.10;;;18.80;99.90;;;;;;4902682;29;20146;-93
2022/06/06 13:12:59;;;;;;;1.20;1.10;;;18.70;99.90;;;;;;4932105;29;20492;-94
2022/06/06 13:15:53;;;;;;;4.20;1.42;;;18.70;99.90;;;;;;4915773;29;20043;-94
2022/06/06 13:18:43;;;;;;;2.83;1.10;;;18.90;99.90;;;;;;4917026;29;20055;-94
2022/06/06 13:21:24;;;;;;;2.70;1.23;;;18.70;99.90;;;;;;4933569;29;20051;-93
2022/06/06 13:24:16;;;;;;;2.05;1.13;;;18.60;99.90;;;;;;4908953;29;20128;-93
2022/06/06 13:26:55;;;;;;;2.83;1.30;;;18.70;99.90;;;;;;4926894;29;20090;-94
2022/06/06 13:29:34;;;;;;;2.92;1.00;;;18.80;99.90;;;;;;4931371;29;20039;-93
2022/06/06 13:32:18;;;;;;;1.10;1.00;;;18.70;99.90;;;;;;4929405;29;20063;-90
2022/06/06 13:35:06;;;;;;;1.52;1.10;;;19.20;99.90;;;;;;4922054;29;20407;-92
2022/06/06 13:38:03;;;;;;;1.67;1.27;;;19.20;99.90;;;;;;4914663;29;20492;-92
2022/06/06 13:40:37;;;;;;;2.28;1.17;;;19.30;99.90;;;;;;4914171;29;20054;-92
2022/06/06 13:43:39;;;;;;;1.60;1.05;;;19.20;99.90;;;;;;4915561;29;20127;-92
2022/06/06 13:46:04;;;;;;;1.48;0.80;;;19.10;99.90;;;;;;4929991;29;20051;-87
2022/06/06 13:48:58;;;;;;;3.92;1.10;;;18.80;99.90;;;;;;4927988;29;20048;-89
2022/06/06 13:51:37;;;;;;;1.67;1.00;;;18.80;99.90;;;;;;4912561;29;20043;-89
2022/06/06 13:54:10;;;;;;;4.15;1.00;;;18.70;99.90;;;;;;4911940;29;20123;-89
2022/06/06 13:57:14;;;;;;;1.75;1.00;;;18.50;99.90;;;;;;4908187;29;20568;-91
2022/06/06 14:00:02;;;;;;;2.77;1.37;;;18.30;99.90;;;;;;4918223;29;20066;-93
2022/06/06 14:02:50;;;;;;;4.95;1.40;;;18.20;99.90;;;;;;4890300;29;20287;-89
2022/06/06 14:05:59;;;;;;;4.07;1.80;;;17.80;99.90;;;;;;4929596;29;20047;-90
2022/06/06 14:08:25;;;;;;;3.92;2.17;;;17.40;99.90;;;;;;4917393;29;20078;-92
2022/06/06 14:10:54;;;;;;;3.28;1.90;;;16.90;99.90;;;;;;4917464;29;20043;-90
2022/06/06 14:13:26;;;;;;;1.95;1.77;;;16.80;99.90;;;;;;4908312;29;20083;-91
2022/06/06 14:15:57;;;;;;;3.33;2.17;;;16.80;99.90;;;;;;4923684;29;20047;-91